Time;durP1;ratioP1;P1;durP2;ratioP2;P2;SDS_P1;SDS_P2;PMS_P1;PMS_P2;Temp;Humidity;BMP_temperature;BMP_pressure;BME280_temperature;BME280_humidity;BME280_pressure;Samples;Min_cycle;Max_cycle;Signal;HPM_P1;HPM_P2
2023/04/16 00:01:39;;;;;;;19.25;6.18;;;;;;;-6.36;30.43;97133.72;6295488;28;20028;-70
2023/04/16 00:04:41;;;;;;;16.50;5.45;;;;;;;-6.41;30.74;97125.16;6294597;28;20059;-70
2023/04/16 00:07:45;;;;;;;11.02;4.70;;;;;;;-6.35;30.58;97121.75;6295902;28;20061;-71
2023/04/16 00:11:08;;;;;;;10.50;5.20;;;;;;;-6.35;30.34;97125.16;6295204;28;20502;-69
2023/04/16 00:14:13;;;;;;;13.93;4.85;;;;;;;-6.39;30.09;97123.44;6295222;28;20202;-69
2023/04/16 00:17:14;;;;;;;12.18;5.35;;;;;;;-6.40;31.14;97131.13;6294206;28;20647;-70
2023/04/16 00:20:16;;;;;;;12.18;5.10;;;;;;;-6.57;30.77;97103.72;6292101;28;20044;-70
2023/04/16 00:23:18;;;;;;;13.45;5.10;;;;;;;-6.52;30.63;97116.53;6292805;28;20134;-70
2023/04/16 00:26:22;;;;;;;12.75;5.07;;;;;;;-6.53;31.48;97125.06;6294178;28;20110;-70
2023/04/16 00:29:27;;;;;;;13.07;5.35;;;;;;;-6.53;30.46;97114.84;6294736;28;20053;-70
2023/04/16 00:32:31;;;;;;;11.63;4.20;;;;;;;-6.54;30.88;97102.88;6294917;28;20044;-70
2023/04/16 00:35:33;;;;;;;9.80;4.75;;;;;;;-6.41;30.37;97114.91;6293974;28;20048;-70
2023/04/16 00:38:40;;;;;;;8.85;4.72;;;;;;;-6.39;30.61;97120.91;6294657;28;20040;-71
2023/04/16 00:41:43;;;;;;;12.38;4.45;;;;;;;-6.47;30.62;97099.50;6294304;28;20044;-70
2023/04/16 00:44:49;;;;;;;13.55;4.70;;;;;;;-6.42;31.41;97123.44;6294692;28;20171;-69
2023/04/16 00:47:50;;;;;;;12.98;4.82;;;;;;;-6.46;30.79;97116.56;6294197;28;20048;-70
2023/04/16 00:50:54;;;;;;;14.50;5.22;;;;;;;-6.56;31.29;97109.72;6294273;28;20417;-70
2023/04/16 00:53:56;;;;;;;;;;;;;;;-6.61;31.56;97119.06;6294412;28;20056;-69
2023/04/16 00:56:58;;;;;;;12.75;4.68;;;;;;;-6.80;31.04;97105.28;6294093;28;19920;-70
2023/04/16 01:00:00;;;;;;;10.55;5.00;;;;;;;-6.87;31.30;97094.16;6294220;28;20043;-70
2023/04/16 01:03:01;;;;;;;14.38;4.60;;;;;;;-6.77;31.94;97121.50;6293883;28;20048;-70
2023/04/16 01:06:03;;;;;;;18.65;8.48;;;;;;;-6.72;32.15;97120.69;6294403;28;20044;-69
2023/04/16 01:09:08;;;;;;;18.40;6.35;;;;;;;-6.71;31.92;97120.69;6292936;28;20509;-69
2023/04/16 01:12:12;;;;;;;11.93;5.13;;;;;;;-6.67;32.23;97116.47;6294223;28;20063;-71
2023/04/16 01:15:16;;;;;;;16.42;6.45;;;;;;;-6.60;32.06;97129.28;6293831;28;20362;-69
2023/04/16 01:18:21;;;;;;;14.98;5.72;;;;;;;-6.60;32.79;97128.44;6293377;28;20595;-69
2023/04/16 01:21:22;;;;;;;15.38;6.05;;;;;;;-6.56;32.17;97125.91;6294337;28;20051;-70
2023/04/16 01:24:26;;;;;;;14.40;5.85;;;;;;;-6.54;31.81;97118.22;6291662;28;20044;-70
2023/04/16 01:27:30;;;;;;;12.73;5.93;;;;;;;-6.49;32.07;97126.78;6293938;28;20045;-70
2023/04/16 01:30:34;;;;;;;20.50;6.07;;;;;;;-6.46;32.43;97121.69;6293256;28;20052;-70
2023/04/16 01:33:38;;;;;;;22.50;7.07;;;;;;;-6.40;32.23;97126.00;6292557;28;20538;-70
2023/04/16 01:36:45;;;;;;;32.22;7.88;;;;;;;-6.40;31.80;97126.00;6293590;28;20407;-69
2023/04/16 01:39:53;;;;;;;23.65;7.55;;;;;;;-6.37;31.57;97132.00;6293755;28;20048;-70
2023/04/16 01:42:55;;;;;;;18.30;6.50;;;;;;;-6.28;31.96;97138.00;6293320;28;20053;-70
2023/04/16 01:46:12;;;;;;;20.02;6.78;;;;;;;-6.15;31.99;97145.75;6293182;28;20060;-71
2023/04/16 01:49:15;;;;;;;14.35;6.68;;;;;;;-6.07;30.91;97140.69;6293161;28;20053;-70
2023/04/16 01:52:16;;;;;;;21.87;6.80;;;;;;;-5.88;30.81;97145.00;6294204;28;20059;-69
2023/04/16 01:55:18;;;;;;;21.83;6.85;;;;;;;-5.82;30.75;97146.75;6292947;28;20044;-69
2023/04/16 01:58:21;;;;;;;17.95;5.93;;;;;;;-5.61;30.46;97151.06;6293572;28;20506;-69
2023/04/16 02:01:26;;;;;;;17.02;5.60;;;;;;;-5.43;30.27;97147.72;6294845;28;20047;-69
2023/04/16 02:04:31;;;;;;;20.05;4.85;;;;;;;-5.22;29.75;97154.59;6298624;28;20037;-69
2023/04/16 02:07:32;;;;;;;18.02;5.72;;;;;;;-5.05;29.91;97149.47;6297957;28;20052;-70
2023/04/16 02:10:37;;;;;;;19.17;5.90;;;;;;;-4.97;29.59;97153.75;6297628;28;20048;-69
2023/04/16 02:13:44;;;;;;;19.25;5.68;;;;;;;-4.78;29.56;97156.34;6297734;28;20046;-70
2023/04/16 02:16:45;;;;;;;12.45;5.30;;;;;;;-4.64;29.43;97154.63;6296245;28;20418;-68
2023/04/16 02:19:47;;;;;;;20.58;5.10;;;;;;;-4.51;29.13;97161.44;6297637;28;20056;-71
2023/04/16 02:22:53;;;;;;;13.40;5.28;;;;;;;-4.43;29.49;97174.28;6297907;28;20139;-69
2023/04/16 02:25:56;;;;;;;8.38;3.80;;;;;;;-4.33;29.07;97164.84;6297860;28;20532;-69
2023/04/16 02:28:58;;;;;;;15.27;5.20;;;;;;;-4.22;29.05;97162.25;6297456;28;20056;-70
2023/04/16 02:32:02;;;;;;;13.30;4.72;;;;;;;-4.03;29.18;97165.66;6296934;28;20052;-70
2023/04/16 02:35:06;;;;;;;13.38;4.13;;;;;;;-3.90;29.06;97164.75;6297153;28;20052;-70
2023/04/16 02:38:10;;;;;;;16.27;4.55;;;;;;;-3.81;28.78;97159.59;6273267;28;20204;-70
2023/04/16 02:41:18;;;;;;;15.50;4.50;;;;;;;-3.73;28.81;97168.13;6273251;28;20045;-68
2023/04/16 02:44:23;;;;;;;22.90;5.68;;;;;;;-3.62;28.97;97158.66;6273073;28;20344;-70
2023/04/16 02:47:24;;;;;;;19.80;5.03;;;;;;;-3.48;28.69;97162.84;6272203;28;20053;-70
2023/04/16 02:50:28;;;;;;;26.10;6.80;;;;;;;-3.36;28.39;97167.09;6280092;28;20506;-69
2023/04/16 02:53:35;;;;;;;17.42;6.28;;;;;;;-3.26;28.55;97164.44;6296422;28;20519;-70
2023/04/16 02:56:36;;;;;;;19.50;5.40;;;;;;;-3.23;28.36;97169.59;6295120;28;20087;-70
2023/04/16 02:59:45;;;;;;;22.85;6.20;;;;;;;-3.10;28.49;97169.53;6295779;28;20456;-69
2023/04/16 03:02:47;;;;;;;19.50;6.35;;;;;;;-3.08;28.28;97175.53;6296677;28;20403;-70
2023/04/16 03:05:50;;;;;;;19.92;5.43;;;;;;;-3.02;28.26;97167.75;6281054;28;20049;-69
2023/04/16 03:08:55;;;;;;;17.20;5.20;;;;;;;-2.87;28.33;97172.78;6277586;28;20048;-69
2023/04/16 03:12:01;;;;;;;18.52;5.65;;;;;;;-2.78;28.40;97166.72;6295779;28;20051;-71
2023/04/16 03:15:03;;;;;;;21.52;7.30;;;;;;;-2.64;28.51;97169.19;6295562;28;20494;-70
2023/04/16 03:18:10;;;;;;;17.77;6.35;;;;;;;-2.56;28.05;97167.41;6296670;28;20421;-69
2023/04/16 03:21:13;;;;;;;18.45;5.40;;;;;;;-2.44;28.00;97172.44;6297011;28;20040;-70
2023/04/16 03:24:17;;;;;;;17.15;5.55;;;;;;;-2.34;27.74;97168.06;6294827;28;20036;-69
2023/04/16 03:27:18;;;;;;;21.58;5.93;;;;;;;-2.27;28.14;97167.97;6293256;28;20048;-70
2023/04/16 03:30:20;;;;;;;16.75;5.18;;;;;;;-2.14;28.16;97171.31;6293345;28;20052;-69
2023/04/16 03:33:23;;;;;;;12.25;4.68;;;;;;;-2.19;27.89;97161.91;6295834;28;20044;-69
2023/04/16 03:36:27;;;;;;;20.80;4.85;;;;;;;-2.05;28.22;97172.94;6296179;28;20097;-69
2023/04/16 03:39:33;;;;;;;15.20;4.90;;;;;;;-1.96;27.94;97159.09;6295556;28;20083;-69
2023/04/16 03:42:34;;;;;;;11.20;4.20;;;;;;;-1.84;27.75;97164.97;6311228;28;20434;-70
2023/04/16 03:45:45;;;;;;;14.57;3.47;;;;;;;-1.73;27.79;97166.56;6295575;28;20036;-69
2023/04/16 03:48:46;;;;;;;10.40;4.05;;;;;;;-1.58;27.43;97176.72;6295653;28;20052;-69
2023/04/16 03:51:50;;;;;;;6.82;2.40;;;;;;;-1.47;27.47;97179.16;6295794;28;20037;-69
2023/04/16 03:54:59;;;;;;;10.85;3.72;;;;;;;-1.37;27.50;97168.69;6295526;28;20418;-71
2023/04/16 03:58:03;;;;;;;15.57;3.90;;;;;;;-1.20;27.66;97163.31;6295517;28;20082;-71
2023/04/16 04:01:05;;;;;;;6.85;2.85;;;;;;;-1.10;27.17;97179.53;6295357;28;20123;-71
2023/04/16 04:04:09;;;;;;;7.68;3.20;;;;;;;-0.98;27.47;97174.19;6295223;28;20045;-71
2023/04/16 04:07:15;;;;;;;9.55;3.70;;;;;;;-0.83;27.59;97169.69;6294497;28;20048;-70
2023/04/16 04:10:16;;;;;;;;;;;;;;;-0.65;27.50;97177.16;6270198;28;20053;-70
2023/04/16 04:13:23;;;;;;;9.70;4.10;;;;;;;-0.56;27.50;97171.84;6270154;28;19921;-69
2023/04/16 04:16:25;;;;;;;10.73;4.65;;;;;;;-0.43;26.96;97179.38;6270354;28;20057;-71
2023/04/16 04:19:31;;;;;;;11.73;4.80;;;;;;;-0.30;27.09;97186.06;6291090;28;20498;-70
2023/04/16 04:22:39;;;;;;;9.93;3.17;;;;;;;-0.14;27.16;97178.88;6294815;28;20143;-70
2023/04/16 04:25:44;;;;;;;5.43;3.28;;;;;;;-0.07;26.91;97186.50;6294158;28;20046;-71
2023/04/16 04:28:48;;;;;;;6.63;3.05;;;;;;;0.09;27.52;97168.16;6294776;28;20409;-69
2023/04/16 04:31:57;;;;;;;9.95;3.95;;;;;;;0.23;26.33;97166.16;6294522;28;20588;-70
2023/04/16 04:35:47;;;;;;;7.18;3.55;;;;;;;0.44;27.39;97173.47;6293880;28;20139;-69
2023/04/16 04:38:57;;;;;;;10.00;5.18;;;;;;;0.60;26.70;97173.19;6285932;28;20048;-71
2023/04/16 04:42:03;;;;;;;8.18;3.78;;;;;;;0.78;26.70;97172.78;6308217;28;20036;-71
2023/04/16 04:45:07;;;;;;;7.40;3.47;;;;;;;0.93;26.20;97170.75;6293311;28;20417;-70
2023/04/16 04:48:12;;;;;;;5.97;3.03;;;;;;;1.17;26.05;97162.44;6294574;28;20619;-70
2023/04/16 04:51:20;;;;;;;8.43;3.63;;;;;;;1.28;26.35;97168.22;6294055;28;20041;-70
2023/04/16 04:54:22;;;;;;;8.27;3.67;;;;;;;1.45;25.74;97170.41;6276024;28;20048;-71
2023/04/16 04:57:29;;;;;;;16.08;4.30;;;;;;;1.66;25.77;97166.44;6292677;28;20052;-70
2023/04/16 05:00:35;;;;;;;11.40;3.33;;;;;;;1.85;25.69;97163.41;6294072;28;20043;-71
2023/04/16 05:03:40;;;;;;;8.30;3.88;;;;;;;1.99;25.22;97162.13;6276602;28;20048;-70
2023/04/16 05:06:45;;;;;;;11.85;4.90;;;;;;;2.23;25.33;97160.63;6292497;28;20060;-70
2023/04/16 05:09:51;;;;;;;8.00;2.92;;;;;;;2.40;25.15;97156.72;6293971;28;20045;-71
2023/04/16 05:12:56;;;;;;;10.70;3.85;;;;;;;2.59;24.62;97170.03;6292790;28;20076;-70
2023/04/16 05:16:00;;;;;;;7.78;2.85;;;;;;;4.30;23.00;97153.31;6293077;28;20502;-69
2023/04/16 05:19:06;;;;;;;7.45;2.50;;;;;;;9.13;18.87;97151.75;6293636;28;20041;-71
2023/04/16 05:22:11;;;;;;;7.78;2.13;;;;;;;14.28;15.76;97171.19;6294489;28;20410;-70
2023/04/16 05:25:16;;;;;;;5.18;2.22;;;;;;;18.68;12.96;97159.19;6292559;28;20059;-70
2023/04/16 05:28:22;;;;;;;4.05;1.80;;;;;;;22.02;11.00;97165.94;6289865;28;20052;-69
2023/04/16 05:31:26;;;;;;;4.28;1.77;;;;;;;23.93;9.30;97168.09;6291644;28;20048;-69
2023/04/16 05:34:31;;;;;;;4.97;1.73;;;;;;;25.36;8.25;97159.41;6293360;28;20472;-70
2023/04/16 05:37:39;;;;;;;5.05;1.42;;;;;;;26.84;7.58;97161.75;6313093;28;20051;-69
2023/04/16 05:40:43;;;;;;;5.30;1.52;;;;;;;28.65;7.06;97167.06;6298633;28;20037;-70
2023/04/16 05:43:47;;;;;;;2.92;1.00;;;;;;;29.61;6.18;97154.88;6298078;28;20048;-69
2023/04/16 05:46:51;;;;;;;2.88;0.90;;;;;;;30.43;5.94;97156.88;6297196;28;20053;-70
2023/04/16 05:49:55;;;;;;;3.05;1.27;;;;;;;31.44;5.08;97148.75;6297732;28;20048;-69
2023/04/16 05:52:57;;;;;;;;;;;;;;;34.04;5.21;97146.44;6298657;28;20460;-70
2023/04/16 05:56:01;;;;;;;2.65;1.08;;;;;;;32.79;4.77;97156.66;6280616;28;19920;-70
2023/04/16 05:59:06;;;;;;;1.92;0.93;;;;;;;32.16;4.51;97147.06;6297689;28;20037;-70
2023/04/16 06:02:11;;;;;;;4.82;1.67;;;;;;;32.06;4.40;97133.19;6288629;28;20047;-69
2023/04/16 06:05:15;;;;;;;3.20;1.45;;;;;;;32.51;4.42;97140.13;6283320;28;20137;-71
2023/04/16 06:08:20;;;;;;;4.15;1.38;;;;;;;34.43;4.13;97139.28;6296816;28;20510;-70
2023/04/16 06:11:26;;;;;;;5.07;1.50;;;;;;;35.52;3.68;97145.44;6297947;28;20044;-69
2023/04/16 06:14:30;;;;;;;3.00;0.90;;;;;;;36.01;3.64;97152.94;6296433;28;20205;-70
2023/04/16 06:17:35;;;;;;;4.78;1.20;;;;;;;35.33;3.35;97135.84;6296614;28;20048;-71
2023/04/16 06:20:39;;;;;;;2.35;1.23;;;;;;;34.71;3.74;97131.28;6297270;28;20036;-70
2023/04/16 06:23:46;;;;;;;3.05;0.80;;;;;;;35.09;3.54;97130.59;6297660;28;20053;-70
2023/04/16 06:26:51;;;;;;;4.40;1.13;;;;;;;35.53;3.29;97134.25;6297403;28;20055;-70
2023/04/16 06:29:55;;;;;;;4.28;1.30;;;;;;;35.89;3.29;97140.19;6295072;28;20047;-70
2023/04/16 06:33:00;;;;;;;3.72;1.40;;;;;;;35.87;3.09;97141.53;6269397;28;20048;-70
2023/04/16 06:36:05;;;;;;;2.38;1.20;;;;;;;36.03;3.08;97139.81;6297100;28;20048;-72
2023/04/16 06:39:10;;;;;;;4.72;1.50;;;;;;;36.64;3.05;97138.59;6295645;28;20139;-70
2023/04/16 06:42:14;;;;;;;5.68;1.48;;;;;;;36.98;2.60;97134.78;6297087;28;20051;-70
2023/04/16 06:45:18;;;;;;;5.10;1.58;;;;;;;35.75;3.34;97123.34;6297049;28;20047;-71
2023/04/16 06:48:22;;;;;;;3.15;1.00;;;;;;;36.26;3.16;97133.25;6296552;28;20044;-70
2023/04/16 06:51:26;;;;;;;3.95;1.13;;;;;;;36.26;3.09;97130.50;6295796;28;20094;-70
2023/04/16 06:54:31;;;;;;;3.95;1.17;;;;;;;36.39;2.77;97128.19;6297205;28;20067;-70
2023/04/16 06:57:35;;;;;;;2.88;1.30;;;;;;;37.23;2.75;97117.72;6295950;28;20359;-71
2023/04/16 07:00:45;;;;;;;6.22;1.38;;;;;;;37.67;2.93;97114.66;6296880;28;20048;-71
2023/04/16 07:04:12;;;;;;;4.13;1.58;;;;;;;38.00;2.73;97121.72;6277763;28;20080;-71
2023/04/16 07:07:16;;;;;;;3.97;1.42;;;;;;;37.60;2.57;97103.94;6296547;28;20127;-70
2023/04/16 07:10:21;;;;;;;6.07;2.83;;;;;;;37.18;2.87;97114.94;6297304;28;20114;-71
2023/04/16 07:13:26;;;;;;;3.92;1.50;;;;;;;36.62;2.90;97107.88;6296333;28;20037;-70
2023/04/16 07:16:31;;;;;;;5.07;1.15;;;;;;;36.70;2.42;97106.59;6296268;28;20143;-71
2023/04/16 07:19:35;;;;;;;3.65;1.10;;;;;;;36.89;2.65;97111.66;6296508;28;20465;-70
2023/04/16 07:22:40;;;;;;;1.70;0.82;;;;;;;36.50;3.20;97112.69;6294634;28;20048;-71
2023/04/16 07:25:45;;;;;;;2.85;1.00;;;;;;;36.52;2.59;97094.06;6295067;28;20044;-70
2023/04/16 07:29:14;;;;;;;8.30;1.38;;;;;;;38.07;2.97;97091.22;6295039;28;20045;-70
2023/04/16 07:32:21;;;;;;;3.67;0.98;;;;;;;37.24;2.85;97100.16;6294616;28;20052;-70
2023/04/16 07:35:25;;;;;;;3.47;0.82;;;;;;;37.61;2.87;97091.03;6295879;28;20557;-71
2023/04/16 07:38:33;;;;;;;3.75;1.40;;;;;;;38.97;2.14;97093.56;6296035;28;20052;-71
2023/04/16 07:41:36;;;;;;;2.97;1.05;;;;;;;39.54;2.11;97084.09;6295600;28;20399;-70
2023/04/16 07:44:40;;;;;;;2.30;0.75;;;;;;;39.77;2.17;97088.16;6294625;28;20050;-69
2023/04/16 07:47:45;;;;;;;3.13;1.40;;;;;;;39.37;2.34;97086.34;6295442;28;20040;-71
2023/04/16 07:50:49;;;;;;;3.22;1.05;;;;;;;37.86;2.30;97085.66;6293998;28;20062;-70
2023/04/16 07:53:54;;;;;;;3.20;0.73;;;;;;;37.24;2.68;97067.22;6295222;28;20497;-71
2023/04/16 07:56:59;;;;;;;2.13;1.13;;;;;;;37.08;2.94;97077.25;6295685;28;20044;-73
2023/04/16 08:00:04;;;;;;;0.82;0.60;;;;;;;37.33;2.41;97073.03;6294630;28;20040;-70
2023/04/16 08:03:09;;;;;;;1.92;0.85;;;;;;;37.30;2.73;97055.16;6293194;28;20044;-70
2023/04/16 08:06:14;;;;;;;2.78;1.05;;;;;;;37.87;2.60;97059.81;6294432;28;20428;-70
2023/04/16 08:09:20;;;;;;;2.00;0.98;;;;;;;38.28;2.55;97059.13;6295061;28;20041;-70
2023/04/16 08:12:25;;;;;;;4.88;0.68;;;;;;;38.34;2.33;97058.84;6295095;28;20501;-71
2023/04/16 08:15:28;;;;;;;3.83;0.80;;;;;;;37.99;2.73;97061.53;6294708;28;20053;-71
2023/04/16 08:18:32;;;;;;;3.65;0.90;;;;;;;37.85;2.71;97062.03;6294966;28;20068;-72
2023/04/16 08:21:36;;;;;;;2.58;1.00;;;;;;;38.48;2.43;97058.34;6293697;28;20046;-70
2023/04/16 08:24:41;;;;;;;3.58;0.95;;;;;;;38.44;3.00;97051.75;6293561;28;20048;-72
2023/04/16 08:27:45;;;;;;;1.77;0.35;;;;;;;38.00;2.71;97041.22;6293417;28;20102;-71
2023/04/16 08:30:49;;;;;;;1.23;0.63;;;;;;;36.97;3.25;97046.19;6292809;28;20060;-71
2023/04/16 08:33:53;;;;;;;2.78;0.82;;;;;;;36.33;3.09;97048.94;6276569;28;20057;-71
2023/04/16 08:36:57;;;;;;;4.10;0.80;;;;;;;35.39;3.42;97044.56;6269693;28;20043;-71
2023/04/16 08:40:03;;;;;;;3.55;0.93;;;;;;;34.59;3.79;97035.72;6269278;28;20495;-71
2023/04/16 08:43:13;;;;;;;7.80;0.98;;;;;;;34.07;3.95;97036.75;6269662;28;20075;-71
2023/04/16 08:46:21;;;;;;;2.53;0.80;;;;;;;34.11;4.05;97045.25;6269395;28;20040;-71
2023/04/16 08:49:26;;;;;;;4.65;1.20;;;;;;;34.84;3.64;97036.13;6276750;28;20044;-71
2023/04/16 08:52:33;;;;;;;4.57;1.15;;;;;;;34.63;3.86;97034.16;6276359;28;20457;-71
2023/04/16 08:55:50;;;;;;;2.25;0.70;;;;;;;35.57;3.46;97041.53;6292945;28;20037;-71
2023/04/16 08:58:57;;;;;;;3.38;0.88;;;;;;;35.32;3.61;97036.53;6294425;28;20497;-71
2023/04/16 09:02:02;;;;;;;1.85;0.70;;;;;;;35.30;3.67;97028.59;6294540;28;20037;-71
2023/04/16 09:05:06;;;;;;;1.73;0.80;;;;;;;36.08;3.46;97036.66;6285187;28;20060;-71
2023/04/16 09:08:13;;;;;;;5.32;1.33;;;;;;;36.59;3.38;97028.91;6287609;28;20480;-71
2023/04/16 09:11:18;;;;;;;4.78;1.58;;;;;;;36.11;3.74;97030.66;6295409;28;20040;-72
2023/04/16 09:14:23;;;;;;;3.20;1.50;;;;;;;36.11;3.55;97025.19;6299675;28;20049;-71
2023/04/16 09:17:26;;;;;;;4.55;1.50;;;;;;;35.17;3.73;97028.97;6299682;28;20041;-73
2023/04/16 09:20:31;;;;;;;2.50;1.20;;;;;;;34.07;3.84;97011.34;6299260;28;20520;-72
2023/04/16 09:23:35;;;;;;;3.42;1.08;;;;;;;33.75;4.01;97017.28;6298873;28;20098;-71
2023/04/16 09:26:42;;;;;;;2.15;1.13;;;;;;;33.28;3.93;97011.94;6299267;28;20063;-70
2023/04/16 09:29:48;;;;;;;3.60;1.67;;;;;;;33.53;4.04;97001.56;6299408;28;20058;-71
2023/04/16 09:33:21;;;;;;;3.53;1.55;;;;;;;34.41;3.93;97009.47;6299001;28;20414;-71
2023/04/16 09:36:27;;;;;;;2.63;1.30;;;;;;;33.78;4.00;97005.88;6299084;28;20044;-71
2023/04/16 09:39:31;;;;;;;3.83;1.52;;;;;;;32.47;4.30;96989.97;6297340;28;20498;-71
2023/04/16 09:42:37;;;;;;;5.85;1.30;;;;;;;32.40;4.82;97000.09;6298462;28;20056;-71
2023/04/16 09:45:54;;;;;;;3.15;1.02;;;;;;;33.16;4.12;96992.88;6299072;28;20048;-70
2023/04/16 09:49:04;;;;;;;2.65;0.93;;;;;;;32.95;4.53;96986.16;6297020;28;20498;-71
2023/04/16 09:52:24;;;;;;;2.95;1.27;;;;;;;33.00;4.08;96999.91;6298799;28;20040;-71
2023/04/16 09:55:29;;;;;;;1.92;1.25;;;;;;;33.05;4.31;96989.09;6298304;28;20064;-71
2023/04/16 09:58:37;;;;;;;4.63;1.10;;;;;;;33.34;4.27;96993.78;6288818;28;20060;-71
2023/04/16 10:01:45;;;;;;;1.92;0.80;;;;;;;33.41;4.08;96984.41;6273401;28;20044;-71
2023/04/16 10:04:51;;;;;;;1.67;0.93;;;;;;;33.02;4.23;96970.50;6279865;28;20066;-71
2023/04/16 10:08:01;;;;;;;4.30;1.40;;;;;;;32.91;4.37;96984.94;6298065;28;20699;-72
2023/04/16 10:11:04;;;;;;;3.17;1.25;;;;;;;32.50;4.10;96978.59;6279893;28;20048;-71
2023/04/16 10:14:09;;;;;;;2.42;1.00;;;;;;;31.58;4.54;96968.03;6295384;28;20071;-70
2023/04/16 10:17:16;;;;;;;3.42;1.13;;;;;;;30.68;4.79;96965.94;6296640;28;20093;-72
2023/04/16 10:20:22;;;;;;;3.03;1.52;;;;;;;30.63;4.99;96952.19;6297558;28;20047;-71
2023/04/16 10:23:29;;;;;;;2.83;0.80;;;;;;;29.36;5.51;96962.31;6297094;28;20512;-71
2023/04/16 10:26:35;;;;;;;10.23;1.27;;;;;;;28.62;5.67;96943.59;6298067;28;20047;-70
2023/04/16 10:29:40;;;;;;;2.60;0.98;;;;;;;28.51;5.88;96944.25;6298020;28;20048;-71
2023/04/16 10:32:45;;;;;;;1.83;0.75;;;;;;;28.91;5.67;96944.13;6295599;28;20048;-71
2023/04/16 10:35:52;;;;;;;2.33;1.05;;;;;;;29.07;5.58;96937.41;6276902;28;20053;-71
2023/04/16 10:39:01;;;;;;;2.80;1.13;;;;;;;29.62;5.65;96936.94;6297871;28;20044;-71
2023/04/16 10:42:11;;;;;;;2.70;1.13;;;;;;;30.44;5.11;96943.19;6294977;28;20036;-71
2023/04/16 10:45:17;;;;;;;3.80;1.40;;;;;;;30.30;5.17;96947.09;6295071;28;20181;-71
2023/04/16 10:48:24;;;;;;;1.95;1.05;;;;;;;28.58;5.65;96939.63;6297269;28;20410;-71
2023/04/16 10:51:32;;;;;;;4.22;1.25;;;;;;;27.00;6.39;96947.28;6297775;28;20414;-71
2023/04/16 10:54:37;;;;;;;5.65;1.17;;;;;;;26.73;6.66;96932.84;6312226;28;20426;-71
2023/04/16 10:57:42;;;;;;;3.30;1.20;;;;;;;26.61;6.71;96921.78;6296442;28;20040;-71
2023/04/16 11:00:50;;;;;;;4.78;1.42;;;;;;;26.21;6.75;96920.66;6297125;28;20036;-71
2023/04/16 11:03:55;;;;;;;3.55;0.95;;;;;;;25.97;6.68;96922.75;6297143;28;20118;-70
2023/04/16 11:07:21;;;;;;;3.03;0.98;;;;;;;25.88;6.92;96926.63;6288844;28;20055;-72
2023/04/16 11:10:25;;;;;;;5.18;1.50;;;;;;;25.44;7.24;96919.56;6278021;28;20052;-71
2023/04/16 11:13:30;;;;;;;4.13;1.52;;;;;;;25.59;6.91;96926.75;6296763;28;20129;-71
2023/04/16 11:16:39;;;;;;;1.63;1.05;;;;;;;25.23;7.18;96920.38;6297041;28;20063;-72
2023/04/16 11:19:44;;;;;;;2.35;1.20;;;;;;;25.18;7.16;96919.28;6294666;28;20056;-71
2023/04/16 11:22:53;;;;;;;2.53;1.20;;;;;;;25.23;6.97;96916.88;6294831;28;20052;-70
2023/04/16 11:25:59;;;;;;;3.05;1.17;;;;;;;25.63;7.02;96911.88;6296804;28;20050;-71
2023/04/16 11:29:13;;;;;;;2.78;1.23;;;;;;;25.65;7.14;96912.53;6296420;28;20040;-71
2023/04/16 11:32:21;;;;;;;3.47;1.15;;;;;;;25.23;6.98;96922.25;6296054;28;20448;-71
2023/04/16 11:35:26;;;;;;;2.47;0.90;;;;;;;24.27;7.64;96911.44;6295415;28;20055;-71
2023/04/16 11:38:40;;;;;;;2.17;0.88;;;;;;;24.48;7.48;96918.78;6294593;28;20110;-71
2023/04/16 11:41:49;;;;;;;1.88;0.80;;;;;;;24.84;7.53;96915.34;6295756;28;20439;-71
2023/04/16 11:44:59;;;;;;;3.13;0.85;;;;;;;24.80;7.35;96911.38;6296068;28;20048;-71
2023/04/16 11:48:06;;;;;;;1.45;1.08;;;;;;;24.41;7.77;96902.53;6294291;28;20475;-71
2023/04/16 11:51:11;;;;;;;2.95;0.80;;;;;;;23.80;7.63;96907.19;6295566;28;20418;-71
2023/04/16 11:54:19;;;;;;;5.07;1.20;;;;;;;22.81;7.97;96909.66;6295346;28;20043;-71
2023/04/16 11:57:29;;;;;;;1.30;0.98;;;;;;;22.18;8.40;96905.22;6293565;28;20051;-72
2023/04/16 12:00:36;;;;;;;2.78;1.10;;;;;;;21.17;8.95;96902.84;6294061;28;20048;-72
2023/04/16 12:03:48;;;;;;;3.47;0.77;;;;;;;20.78;8.94;96903.44;6295093;28;20483;-70
2023/04/16 12:07:13;;;;;;;3.60;1.05;;;;;;;20.61;9.00;96903.41;6271438;28;20037;-72
2023/04/16 12:10:18;;;;;;;2.13;1.20;;;;;;;20.54;9.47;96897.00;6270765;28;20074;-71
2023/04/16 12:13:30;;;;;;;2.25;1.20;;;;;;;20.42;9.54;96898.25;6274038;28;20051;-72
2023/04/16 12:16:34;;;;;;;2.00;0.90;;;;;;;20.10;9.53;96905.13;6293248;28;20052;-72
2023/04/16 12:20:00;;;;;;;1.83;0.82;;;;;;;19.87;9.79;96898.63;6293646;28;20040;-72
2023/04/16 12:23:05;;;;;;;3.65;1.67;;;;;;;19.65;9.62;96898.16;6294318;28;20139;-70
2023/04/16 12:26:09;;;;;;;2.72;1.35;;;;;;;19.37;9.90;96893.88;6293714;28;20047;-71
2023/04/16 12:29:22;;;;;;;4.43;1.20;;;;;;;19.25;9.96;96886.13;6294090;28;20048;-71
2023/04/16 12:32:26;;;;;;;6.68;1.38;;;;;;;19.24;9.90;96889.75;6293517;28;20036;-71
2023/04/16 12:35:32;;;;;;;1.88;1.10;;;;;;;19.35;9.86;96887.88;6290480;28;20048;-71
2023/04/16 12:38:37;;;;;;;2.90;1.05;;;;;;;19.14;10.19;96886.34;6292809;28;20044;-72
2023/04/16 12:41:42;;;;;;;3.72;1.40;;;;;;;18.68;10.23;96882.84;6293186;28;20036;-71
2023/04/16 12:44:47;;;;;;;4.65;1.30;;;;;;;18.30;10.31;96887.41;6294472;28;20044;-72
2023/04/16 12:47:52;;;;;;;1.00;0.90;;;;;;;18.10;10.51;96883.13;6293157;28;20044;-72
2023/04/16 12:50:54;;;;;;;3.20;1.17;;;;;;;17.77;10.75;96885.31;6276245;28;20048;-71
2023/04/16 12:53:57;;;;;;;4.05;1.40;;;;;;;17.44;11.13;96882.16;6276278;28;20525;-72
2023/04/16 12:57:02;;;;;;;4.88;1.15;;;;;;;17.31;11.15;96878.94;6294464;28;20120;-71
2023/04/16 13:00:07;;;;;;;5.25;1.92;;;;;;;17.31;11.06;96886.91;6294091;28;20058;-73
2023/04/16 13:03:10;;;;;;;6.38;2.85;;;;;;;17.25;11.15;96879.50;6294107;28;20040;-71
2023/04/16 13:06:15;;;;;;;5.93;2.10;;;;;;;17.18;11.38;96883.69;6293815;28;20063;-71
2023/04/16 13:09:19;;;;;;;3.33;1.63;;;;;;;17.03;11.36;96876.13;6294091;28;20510;-72
2023/04/16 13:12:23;;;;;;;4.60;2.30;;;;;;;16.75;11.59;96871.63;6294501;28;20044;-72
2023/04/16 13:15:26;;;;;;;7.22;1.77;;;;;;;16.39;11.73;96876.59;6309304;28;20056;-71
2023/04/16 13:18:31;;;;;;;2.60;1.23;;;;;;;15.80;12.01;96874.69;6276356;28;20048;-70
2023/04/16 13:21:35;;;;;;;8.13;1.75;;;;;;;15.23;12.37;96877.63;6294354;28;20517;-72
2023/04/16 13:24:40;;;;;;;2.55;1.05;;;;;;;14.72;12.75;96872.16;6292640;28;20044;-70
2023/04/16 13:27:44;;;;;;;2.65;1.45;;;;;;;14.42;12.82;96875.47;6293397;28;20048;-70
2023/04/16 13:30:49;;;;;;;4.07;1.63;;;;;;;14.17;13.08;96872.13;6294203;28;20426;-71
2023/04/16 13:33:53;;;;;;;3.83;2.42;;;;;;;13.63;13.75;96875.50;6294163;28;20036;-71
2023/04/16 13:36:57;;;;;;;5.88;2.25;;;;;;;13.22;13.83;96876.81;6293856;28;20040;-71
2023/04/16 13:40:02;;;;;;;3.58;1.48;;;;;;;12.92;14.03;96874.66;6284510;28;20410;-71
2023/04/16 13:43:07;;;;;;;4.78;1.70;;;;;;;12.76;13.99;96867.03;6267842;28;20057;-71
2023/04/16 13:46:11;;;;;;;4.18;1.67;;;;;;;12.63;14.23;96877.66;6269156;28;20044;-71
2023/04/16 13:49:14;;;;;;;2.22;1.15;;;;;;;12.41;14.29;96880.16;6283172;28;20036;-71
2023/04/16 13:52:18;;;;;;;2.75;1.45;;;;;;;12.13;14.42;96880.34;6293888;28;20444;-71
2023/04/16 13:55:24;;;;;;;3.95;1.88;;;;;;;12.13;14.69;96877.69;6293663;28;20044;-71
2023/04/16 13:58:29;;;;;;;4.53;2.03;;;;;;;11.94;14.83;96879.94;6296684;28;20048;-70
2023/04/16 14:01:33;;;;;;;6.35;1.90;;;;;;;11.76;15.17;96881.22;6298792;28;20044;-71
2023/04/16 14:04:38;;;;;;;6.18;1.73;;;;;;;11.69;15.27;96881.63;6291516;28;20056;-72
2023/04/16 14:07:45;;;;;;;2.10;1.70;;;;;;;11.44;15.36;96876.38;6273745;28;20231;-71
2023/04/16 14:10:50;;;;;;;5.32;1.60;;;;;;;11.27;15.56;96879.31;6286045;28;20039;-71
2023/04/16 14:13:54;;;;;;;6.28;1.77;;;;;;;11.06;15.61;96874.50;6297792;28;20040;-72
2023/04/16 14:17:02;;;;;;;4.55;2.10;;;;;;;10.75;15.92;96871.28;6296531;28;20052;-71
2023/04/16 14:20:05;;;;;;;4.68;2.08;;;;;;;10.30;16.39;96880.34;6298234;28;20439;-72
2023/04/16 14:23:11;;;;;;;7.13;2.17;;;;;;;9.97;16.53;96885.94;6297037;28;20043;-71
2023/04/16 14:26:15;;;;;;;3.05;1.73;;;;;;;9.59;16.87;96883.84;6297485;28;20143;-72
2023/04/16 14:29:19;;;;;;;4.07;2.08;;;;;;;9.38;17.19;96886.84;6296607;28;20042;-71
2023/04/16 14:32:22;;;;;;;;;;;;;;;9.35;16.86;96894.06;6296474;28;20044;-72
2023/04/16 14:35:26;;;;;;;4.38;1.77;;;;;;;9.22;17.30;96888.69;6295609;28;20038;-72
2023/04/16 14:38:30;;;;;;;;;;;;;;;9.10;17.33;96898.13;6296592;28;20425;-71